Aviation Digital Data Service (ADDS)

Output produced by METARs form (0146 UTC 22 February 2019)
found at http://www.aviationweather.gov/metar/data/
 
Forecast for: RPMD (DAVAO/FRANCISCO , PH)
Text: TAF RPMD 212300Z 2200/2224 35006KT 9999 FEW016 SCT280
Forecast period: 0000 UTC 22 February 2019 to 0000 UTC 23 February 2019
Forecast type: FROM: standard forecast or significant change
Winds: from the N (350 degrees) at 7 MPH (6 knots; 3.1 m/s)
Visibility: 6 or more miles 10+ km)
Ceiling: at least 12,000 feet AGL
Clouds: few clouds at 1600 feet AGL
scattered clouds at 28000 feet AGL
Weather: no significant weather forecast for this period
Text: TEMPO 2200/2206 02012KT FEW016 SCT090 BKN290
Forecast period: 0000 to 0600 UTC 22 February 2019
Forecast type: TEMPORARY: The following changes expected for less than half the time period
Winds: from the NNE (20 degrees) at 14 MPH (12 knots; 6.2 m/s)
Visibility: missing
Ceiling: 29000 feet AGL
Clouds: few clouds at 1600 feet AGL
scattered clouds at 9000 feet AGL
broken clouds at 29000 feet AGL
Weather: no significant weather forecast for this period